Atkins, IA

1:36 PM CDT on October 23, 2014 (GMT -0500)
Ridgeview Estates | Change Station
CLOSE
Current Station
Personal Weather Station
Location: Atkins, IA
Elevation: 860 ft
Nearby Weather Stations

Elev 860 ft 41.99 °N, 91.85 °W | Updated 8 seconds ago

Overcast
Overcast
55.9 °F
Feels Like 55.9 °F
N
2.8
Wind Variable Wind from South
Gusts 5.6 mph

Today
High -- | Low -- °F
--% Chance of Precip.
Yesterday
High -- | Low -- °F
Precip. -- in
7:29 AM 6:13 PM
Waning Crescent, 0% visible
Pressure 30.05 in
Visibility 10.0 miles
Clouds Overcast 1400 ft
Dew Point 49 °F
Humidity 77%
Rainfall 0.00 in
Snow Depth Not available.
UV 1 out of 12
Pollen .30 out of 12
Air Quality Not available.
Flu Activity Sporadic
SPECI KCID 231801Z 17008KT 10SM OVC014 12/09 A3005 RMK AO2 T01170089

More Conditions Fewer Conditions

Pressure 30.05 in
Visibility 10.0 miles
Clouds Overcast 1400 ft
Dew Point 49 °F
Humidity 77%
Rainfall 0.00 in
Snow Depth Not available.
UV 1 out of 12
Pollen .30 out of 12
Air Quality Not available.
Flu Activity Sporadic
SPECI KCID 231801Z 17008KT 10SM OVC014 12/09 A3005 RMK AO2 T01170089

More Conditions Fewer Conditions

10-Day Weather Forecast

Almanac

Astronomy

Oct. 23, 2014 Rise Set
Actual Time 7:29 AM CDT 6:13 PM CDT
Civil Twilight 7:00 AM CDT 6:42 PM CDT
Nautical Twilight 6:28 AM CDT 7:14 PM CDT
Astronomical Twilight 5:55 AM CDT 7:46 PM CDT
Moon 7:08 AM CDT 6:15 PM CDT
Length of Visible Light 11h 41m
Length of Day
10h 44m
Tomorrow will be 2m 39s shorter.
Waning Crescent, 0% of the Moon is Illuminated
Today
Waning Crescent
Oct 23
New
Oct 30
First Quarter
Nov 6
Full
Nov 14
Last Quarter

Today's Extremes

State Highs State Lows

Community

WunderPhotos

Upload Photos

1,764,338 photos uploaded!

WunderBlogs® & News

Nearby

Snow Depth

Station Depth Elevation
No new snow has been reported.

Earthquake Activity

City Distance Mag. Time & Date
No recent earthquake activity has been reported nearby.
Minimum magnitude displayed is 2.5.

Coastal Water Temperatures

Place Temperature
No Stations Reporting

Nearby Weather Stations